sensor_id;sensor_type;location;lat;lon;timestamp;pressure;altitude;pressure_sealevel;temperature;humidity
1616;BME280;801;47.982;7.810;2023-07-29T00:01:23;98154.66;;;19.41;100.00
1616;BME280;801;47.982;7.810;2023-07-29T00:03:50;98149.06;;;19.37;100.00
1616;BME280;801;47.982;7.810;2023-07-29T00:06:17;98149.19;;;19.41;100.00
1616;BME280;801;47.982;7.810;2023-07-29T00:08:43;98134.44;;;19.42;100.00
1616;BME280;801;47.982;7.810;2023-07-29T00:11:11;98140.72;;;19.42;100.00
1616;BME280;801;47.982;7.810;2023-07-29T00:13:38;98134.16;;;19.35;100.00
1616;BME280;801;47.982;7.810;2023-07-29T00:16:04;98132.75;;;19.28;100.00
1616;BME280;801;47.982;7.810;2023-07-29T00:18:31;98131.88;;;19.16;100.00
1616;BME280;801;47.982;7.810;2023-07-29T00:20:58;98128.38;;;19.06;100.00
1616;BME280;801;47.982;7.810;2023-07-29T00:23:24;98132.91;;;19.02;100.00
1616;BME280;801;47.982;7.810;2023-07-29T00:25:51;98135.59;;;19.11;100.00
1616;BME280;801;47.982;7.810;2023-07-29T00:28:19;98135.72;;;19.15;100.00
1616;BME280;801;47.982;7.810;2023-07-29T00:30:45;98128.47;;;19.19;100.00
1616;BME280;801;47.982;7.810;2023-07-29T00:33:12;98126.56;;;19.19;100.00
1616;BME280;801;47.982;7.810;2023-07-29T00:35:38;98129.06;;;19.24;100.00
1616;BME280;801;47.982;7.810;2023-07-29T00:38:05;98119.78;;;19.25;100.00
1616;BME280;801;47.982;7.810;2023-07-29T00:40:35;98128.44;;;19.27;100.00
1616;BME280;801;47.982;7.810;2023-07-29T00:43:02;98119.94;;;19.29;100.00
1616;BME280;801;47.982;7.810;2023-07-29T00:45:31;98108.72;;;19.31;100.00
1616;BME280;801;47.982;7.810;2023-07-29T00:47:58;98110.13;;;19.37;100.00
1616;BME280;801;47.982;7.810;2023-07-29T00:50:25;98123.06;;;19.40;100.00
1616;BME280;801;47.982;7.810;2023-07-29T00:52:53;98124.88;;;19.36;100.00
1616;BME280;801;47.982;7.810;2023-07-29T00:55:20;98124.88;;;19.36;100.00
1616;BME280;801;47.982;7.810;2023-07-29T00:57:47;98121.16;;;19.40;100.00
1616;BME280;801;47.982;7.810;2023-07-29T01:00:17;98124.44;;;19.25;100.00
1616;BME280;801;47.982;7.810;2023-07-29T01:02:45;98131.63;;;19.29;100.00
1616;BME280;801;47.982;7.810;2023-07-29T01:05:13;98122.31;;;19.31;100.00
1616;BME280;801;47.982;7.810;2023-07-29T01:07:46;98120.69;;;19.38;100.00
1616;BME280;801;47.982;7.810;2023-07-29T01:10:21;98122.59;;;19.38;100.00
1616;BME280;801;47.982;7.810;2023-07-29T01:13:06;98108.19;;;19.37;100.00
1616;BME280;801;47.982;7.810;2023-07-29T01:15:36;98116.31;;;19.46;100.00
1616;BME280;801;47.982;7.810;2023-07-29T01:18:12;98116.97;;;19.43;100.00
1616;BME280;801;47.982;7.810;2023-07-29T01:20:43;98111.66;;;19.46;100.00
1616;BME280;801;47.982;7.810;2023-07-29T01:23:10;98109.75;;;19.47;100.00
1616;BME280;801;47.982;7.810;2023-07-29T01:25:38;98106.09;;;19.43;100.00
1616;BME280;801;47.982;7.810;2023-07-29T01:28:04;98106.25;;;19.38;100.00
1616;BME280;801;47.982;7.810;2023-07-29T01:30:38;98107.88;;;19.39;100.00
1616;BME280;801;47.982;7.810;2023-07-29T01:33:10;98111.25;;;19.36;100.00
1616;BME280;801;47.982;7.810;2023-07-29T01:35:44;98103.25;;;19.31;100.00
1616;BME280;801;47.982;7.810;2023-07-29T01:38:26;98111.44;;;19.31;100.00
1616;BME280;801;47.982;7.810;2023-07-29T01:40:59;98114.81;;;19.27;100.00
1616;BME280;801;47.982;7.810;2023-07-29T01:43:27;98113.03;;;19.32;100.00
1616;BME280;801;47.982;7.810;2023-07-29T01:45:54;98110.97;;;19.28;100.00
1616;BME280;801;47.982;7.810;2023-07-29T01:48:20;98109.84;;;19.29;100.00
1616;BME280;801;47.982;7.810;2023-07-29T01:50:47;98113.03;;;19.32;100.00
1616;BME280;801;47.982;7.810;2023-07-29T01:53:13;98108.06;;;19.34;100.00
1616;BME280;801;47.982;7.810;2023-07-29T01:55:42;98110.91;;;19.37;100.00
1616;BME280;801;47.982;7.810;2023-07-29T01:58:11;98105.47;;;19.37;100.00
1616;BME280;801;47.982;7.810;2023-07-29T02:00:38;98106.25;;;19.38;100.00
1616;BME280;801;47.982;7.810;2023-07-29T02:03:05;98103.72;;;19.33;100.00
1616;BME280;801;47.982;7.810;2023-07-29T02:05:31;98112.09;;;19.27;100.00
1616;BME280;801;47.982;7.810;2023-07-29T02:07:58;98110.47;;;19.26;100.00
1616;BME280;801;47.982;7.810;2023-07-29T02:10:24;98104.56;;;19.24;100.00
1616;BME280;801;47.982;7.810;2023-07-29T02:12:51;98105.72;;;19.23;100.00
1616;BME280;801;47.982;7.810;2023-07-29T02:15:18;98104.56;;;19.24;100.00
1616;BME280;801;47.982;7.810;2023-07-29T02:17:45;98107.97;;;19.21;100.00
1616;BME280;801;47.982;7.810;2023-07-29T02:20:11;98108.16;;;19.16;100.00
1616;BME280;801;47.982;7.810;2023-07-29T02:22:38;98106.38;;;19.20;100.00
1616;BME280;801;47.982;7.810;2023-07-29T02:25:05;98119.00;;;19.25;100.00
1616;BME280;801;47.982;7.810;2023-07-29T02:27:31;98115.63;;;19.28;100.00
1616;BME280;801;47.982;7.810;2023-07-29T02:29:58;98110.78;;;19.34;100.00
1616;BME280;801;47.982;7.810;2023-07-29T02:32:26;98116.34;;;19.37;100.00
1616;BME280;801;47.982;7.810;2023-07-29T02:34:53;98100.81;;;19.38;100.00
1616;BME280;801;47.982;7.810;2023-07-29T02:37:19;98095.03;;;19.39;100.00
1616;BME280;801;47.982;7.810;2023-07-29T02:39:46;98082.41;;;19.35;100.00
1616;BME280;801;47.982;7.810;2023-07-29T02:42:12;98086.59;;;19.32;100.00
1616;BME280;801;47.982;7.810;2023-07-29T02:44:40;98091.03;;;19.37;100.00
1616;BME280;801;47.982;7.810;2023-07-29T02:47:06;98084.47;;;19.38;100.00
1616;BME280;801;47.982;7.810;2023-07-29T02:49:34;98080.94;;;19.37;100.00
1616;BME280;801;47.982;7.810;2023-07-29T02:52:00;98077.28;;;19.33;100.00
1616;BME280;801;47.982;7.810;2023-07-29T02:54:27;98073.28;;;19.31;100.00
1616;BME280;801;47.982;7.810;2023-07-29T02:56:53;98074.75;;;19.28;100.00
1616;BME280;801;47.982;7.810;2023-07-29T02:59:20;98071.72;;;19.29;100.00
1616;BME280;801;47.982;7.810;2023-07-29T03:01:46;98079.41;;;19.27;100.00
1616;BME280;801;47.982;7.810;2023-07-29T03:04:13;98073.16;;;19.27;100.00
1616;BME280;801;47.982;7.810;2023-07-29T03:06:41;98073.28;;;19.31;100.00
1616;BME280;801;47.982;7.810;2023-07-29T03:09:08;98069.00;;;19.29;100.00
1616;BME280;801;47.982;7.810;2023-07-29T03:11:34;98069.78;;;19.30;100.00
1616;BME280;801;47.982;7.810;2023-07-29T03:14:01;98067.00;;;19.39;100.00
1616;BME280;801;47.982;7.810;2023-07-29T03:16:28;98070.00;;;19.46;100.00
1616;BME280;801;47.982;7.810;2023-07-29T03:18:54;98066.78;;;19.44;100.00
1616;BME280;801;47.982;7.810;2023-07-29T03:21:21;98059.50;;;19.36;100.00
1616;BME280;801;47.982;7.810;2023-07-29T03:23:49;98060.41;;;19.40;100.00
1616;BME280;801;47.982;7.810;2023-07-29T03:26:15;98060.81;;;19.29;100.00
1616;BME280;801;47.982;7.810;2023-07-29T03:28:42;98065.53;;;19.41;100.00
1616;BME280;801;47.982;7.810;2023-07-29T03:31:09;98052.69;;;19.42;100.00
1616;BME280;801;47.982;7.810;2023-07-29T03:33:36;98040.53;;;19.39;100.00
1616;BME280;801;47.982;7.810;2023-07-29T03:36:03;98047.66;;;19.32;100.00
1616;BME280;801;47.982;7.810;2023-07-29T03:38:30;98064.47;;;19.34;100.00
1616;BME280;801;47.982;7.810;2023-07-29T03:40:59;98065.31;;;19.25;100.00
1616;BME280;801;47.982;7.810;2023-07-29T03:43:27;98064.47;;;19.34;100.00
1616;BME280;801;47.982;7.810;2023-07-29T03:45:56;98065.84;;;19.40;100.00
1616;BME280;801;47.982;7.810;2023-07-29T03:48:23;98052.25;;;19.40;100.00
1616;BME280;801;47.982;7.810;2023-07-29T03:50:49;98056.56;;;19.41;100.00
1616;BME280;801;47.982;7.810;2023-07-29T03:53:16;98062.03;;;19.41;100.00
1616;BME280;801;47.982;7.810;2023-07-29T03:55:42;98058.41;;;19.28;100.00
1616;BME280;801;47.982;7.810;2023-07-29T03:58:10;98059.34;;;19.32;100.00
1616;BME280;801;47.982;7.810;2023-07-29T04:00:37;98055.63;;;19.37;100.00
1616;BME280;801;47.982;7.810;2023-07-29T04:03:03;98051.50;;;19.31;100.00
1616;BME280;801;47.982;7.810;2023-07-29T04:05:30;98055.09;;;19.22;100.00
1616;BME280;801;47.982;7.810;2023-07-29T04:07:56;98057.47;;;19.24;100.00
1616;BME280;801;47.982;7.810;2023-07-29T04:10:23;98047.09;;;19.17;100.00
1616;BME280;801;47.982;7.810;2023-07-29T04:12:49;98045.63;;;19.20;100.00
1616;BME280;801;47.982;7.810;2023-07-29T04:15:17;98050.16;;;19.16;100.00
1616;BME280;801;47.982;7.810;2023-07-29T04:17:44;98050.44;;;19.44;100.00
1616;BME280;801;47.982;7.810;2023-07-29T04:20:11;98053.91;;;19.53;100.00
1616;BME280;801;47.982;7.810;2023-07-29T04:22:37;98063.22;;;19.52;100.00
1616;BME280;801;47.982;7.810;2023-07-29T04:25:05;98060.03;;;19.50;100.00
1616;BME280;801;47.982;7.810;2023-07-29T04:27:32;98075.06;;;19.56;100.00
1616;BME280;801;47.982;7.810;2023-07-29T04:29:58;98070.94;;;19.50;100.00
1616;BME280;801;47.982;7.810;2023-07-29T04:32:26;98077.44;;;19.37;100.00
1616;BME280;801;47.982;7.810;2023-07-29T04:34:52;98074.31;;;19.47;100.00
1616;BME280;801;47.982;7.810;2023-07-29T04:37:19;98075.84;;;19.36;100.00
1616;BME280;801;47.982;7.810;2023-07-29T04:39:46;98085.53;;;19.45;100.00
1616;BME280;801;47.982;7.810;2023-07-29T04:42:12;98081.81;;;19.50;100.00
1616;BME280;801;47.982;7.810;2023-07-29T04:44:39;98085.66;;;19.49;100.00
1616;BME280;801;47.982;7.810;2023-07-29T04:47:07;98080.88;;;19.46;100.00
1616;BME280;801;47.982;7.810;2023-07-29T04:49:34;98081.03;;;19.49;100.00
1616;BME280;801;47.982;7.810;2023-07-29T04:52:01;98087.28;;;19.50;100.00
1616;BME280;801;47.982;7.810;2023-07-29T04:54:27;98089.72;;;19.64;100.00
1616;BME280;801;47.982;7.810;2023-07-29T04:56:54;98095.13;;;19.52;100.00
1616;BME280;801;47.982;7.810;2023-07-29T04:59:20;98098.69;;;19.64;100.00
1616;BME280;801;47.982;7.810;2023-07-29T05:01:47;98111.50;;;19.73;100.00
1616;BME280;801;47.982;7.810;2023-07-29T05:04:13;98114.97;;;20.03;100.00
1616;BME280;801;47.982;7.810;2023-07-29T05:06:42;98112.69;;;20.38;100.00
1616;BME280;801;47.982;7.810;2023-07-29T05:09:14;98121.09;;;20.66;100.00
1616;BME280;801;47.982;7.810;2023-07-29T05:11:42;98121.00;;;20.75;100.00
1616;BME280;801;47.982;7.810;2023-07-29T05:14:10;98127.28;;;20.88;100.00
1616;BME280;801;47.982;7.810;2023-07-29T05:16:37;98123.22;;;21.06;100.00
1616;BME280;801;47.982;7.810;2023-07-29T05:19:03;98123.66;;;21.08;100.00
1616;BME280;801;47.982;7.810;2023-07-29T05:21:30;98125.34;;;21.25;100.00
1616;BME280;801;47.982;7.810;2023-07-29T05:23:57;98131.16;;;21.36;100.00
1616;BME280;801;47.982;7.810;2023-07-29T05:26:24;98146.44;;;21.49;100.00
1616;BME280;801;47.982;7.810;2023-07-29T05:28:51;98139.41;;;21.48;100.00
1616;BME280;801;47.982;7.810;2023-07-29T05:31:17;98132.44;;;21.51;100.00
1616;BME280;801;47.982;7.810;2023-07-29T05:33:44;98136.75;;;21.40;100.00
1616;BME280;801;47.982;7.810;2023-07-29T05:36:10;98138.78;;;21.18;100.00
1616;BME280;801;47.982;7.810;2023-07-29T05:38:37;98131.50;;;21.22;100.00
1616;BME280;801;47.982;7.810;2023-07-29T05:41:05;98129.91;;;21.09;100.00
1616;BME280;801;47.982;7.810;2023-07-29T05:43:31;98130.84;;;21.13;100.00
1616;BME280;801;47.982;7.810;2023-07-29T05:45:58;98134.13;;;21.06;100.00
1616;BME280;801;47.982;7.810;2023-07-29T05:48:24;98135.72;;;21.07;100.00
1616;BME280;801;47.982;7.810;2023-07-29T05:50:51;98145.19;;;21.10;100.00
1616;BME280;801;47.982;7.810;2023-07-29T05:53:18;98136.97;;;21.22;100.00
1616;BME280;801;47.982;7.810;2023-07-29T05:55:44;98145.06;;;21.43;100.00
1616;BME280;801;47.982;7.810;2023-07-29T05:58:12;98142.69;;;21.54;100.00
1616;BME280;801;47.982;7.810;2023-07-29T06:00:38;98156.59;;;21.49;100.00
1616;BME280;801;47.982;7.810;2023-07-29T06:03:05;98157.72;;;21.60;100.00
1616;BME280;801;47.982;7.810;2023-07-29T06:05:31;98160.19;;;21.65;100.00
1616;BME280;801;47.982;7.810;2023-07-29T06:07:58;98161.03;;;21.66;100.00
1616;BME280;801;47.982;7.810;2023-07-29T06:10:24;98161.13;;;21.69;100.00
1616;BME280;801;47.982;7.810;2023-07-29T06:12:51;98156.31;;;21.79;100.00
1616;BME280;801;47.982;7.810;2023-07-29T06:15:19;98161.56;;;21.84;100.00
1616;BME280;801;47.982;7.810;2023-07-29T06:17:47;98168.16;;;21.83;100.00
1616;BME280;801;47.982;7.810;2023-07-29T06:20:14;98166.34;;;21.87;100.00
1616;BME280;801;47.982;7.810;2023-07-29T06:22:41;98156.97;;;21.88;100.00
1616;BME280;801;47.982;7.810;2023-07-29T06:25:08;98158.78;;;21.96;100.00
1616;BME280;801;47.982;7.810;2023-07-29T06:27:35;98157.88;;;21.92;100.00
1616;BME280;801;47.982;7.810;2023-07-29T06:30:01;98161.78;;;21.91;100.00
1616;BME280;801;47.982;7.810;2023-07-29T06:32:29;98148.22;;;21.82;100.00
1616;BME280;801;47.982;7.810;2023-07-29T06:34:55;98158.00;;;21.83;100.00
1616;BME280;801;47.982;7.810;2023-07-29T06:37:22;98161.56;;;21.84;100.00
1616;BME280;801;47.982;7.810;2023-07-29T06:39:48;98196.56;;;21.53;100.00
1616;BME280;801;47.982;7.810;2023-07-29T06:42:15;98180.38;;;20.66;100.00
1616;BME280;801;47.982;7.810;2023-07-29T06:44:41;98150.94;;;20.50;100.00
1616;BME280;801;47.982;7.810;2023-07-29T06:47:08;98159.59;;;20.52;100.00
1616;BME280;801;47.982;7.810;2023-07-29T06:49:36;98166.38;;;20.34;100.00
1616;BME280;801;47.982;7.810;2023-07-29T06:52:03;98160.38;;;20.41;100.00
1616;BME280;801;47.982;7.810;2023-07-29T06:54:29;98162.28;;;20.40;100.00
1616;BME280;801;47.982;7.810;2023-07-29T06:56:56;98167.09;;;20.56;100.00
1616;BME280;801;47.982;7.810;2023-07-29T06:59:22;98174.25;;;20.48;100.00
1616;BME280;801;47.982;7.810;2023-07-29T07:01:49;98167.59;;;20.58;100.00
1616;BME280;801;47.982;7.810;2023-07-29T07:04:16;98163.75;;;20.59;100.00
1616;BME280;801;47.982;7.810;2023-07-29T07:06:44;98168.06;;;20.60;100.00
1616;BME280;801;47.982;7.810;2023-07-29T07:09:10;98157.53;;;20.70;100.00
1616;BME280;801;47.982;7.810;2023-07-29T07:11:37;98162.78;;;20.88;100.00
1616;BME280;801;47.982;7.810;2023-07-29T07:14:03;98160.81;;;20.76;100.00
1616;BME280;801;47.982;7.810;2023-07-29T07:16:30;98166.19;;;20.85;100.00
1616;BME280;801;47.982;7.810;2023-07-29T07:18:56;98164.28;;;20.98;100.00
1616;BME280;801;47.982;7.810;2023-07-29T07:21:23;98160.84;;;20.88;100.00
1616;BME280;801;47.982;7.810;2023-07-29T07:23:50;98166.88;;;20.94;100.00
1616;BME280;801;47.982;7.810;2023-07-29T07:26:17;98169.75;;;20.98;100.00
1616;BME280;801;47.982;7.810;2023-07-29T07:28:43;98154.59;;;21.00;100.00
1616;BME280;801;47.982;7.810;2023-07-29T07:31:10;98158.03;;;21.22;100.00
1616;BME280;801;47.982;7.810;2023-07-29T07:33:36;98150.88;;;21.17;100.00
1616;BME280;801;47.982;7.810;2023-07-29T07:36:03;98161.78;;;21.29;100.00
1616;BME280;801;47.982;7.810;2023-07-29T07:38:30;98157.47;;;21.28;100.00
1616;BME280;801;47.982;7.810;2023-07-29T07:40:58;98160.09;;;21.37;100.00
1616;BME280;801;47.982;7.810;2023-07-29T07:43:24;98152.38;;;21.51;100.00
1616;BME280;801;47.982;7.810;2023-07-29T07:45:53;98160.44;;;21.72;100.00
1616;BME280;801;47.982;7.810;2023-07-29T07:48:23;98163.38;;;21.80;100.00
1616;BME280;801;47.982;7.810;2023-07-29T07:51:00;98171.34;;;21.97;100.00
1616;BME280;801;47.982;7.810;2023-07-29T07:53:27;98173.31;;;22.12;100.00
1616;BME280;801;47.982;7.810;2023-07-29T07:56:03;98178.47;;;22.26;100.00
1616;BME280;801;47.982;7.810;2023-07-29T07:58:31;98167.72;;;22.33;100.00
1616;BME280;801;47.982;7.810;2023-07-29T08:01:12;98185.72;;;22.34;100.00
1616;BME280;801;47.982;7.810;2023-07-29T08:03:55;98179.75;;;22.45;100.00
1616;BME280;801;47.982;7.810;2023-07-29T08:06:55;98178.88;;;22.56;100.00
1616;BME280;801;47.982;7.810;2023-07-29T08:09:38;98181.81;;;22.64;100.00
1616;BME280;801;47.982;7.810;2023-07-29T08:23:27;98186.41;;;22.59;100.00
1616;BME280;801;47.982;7.810;2023-07-29T08:26:06;98188.97;;;22.68;100.00
1616;BME280;801;47.982;7.810;2023-07-29T08:28:58;98187.75;;;22.66;100.00
1616;BME280;801;47.982;7.810;2023-07-29T08:31:40;98201.44;;;22.66;100.00
1616;BME280;801;47.982;7.810;2023-07-29T08:34:21;98209.19;;;22.92;100.00
1616;BME280;801;47.982;7.810;2023-07-29T08:37:11;98198.41;;;22.99;100.00
1616;BME280;801;47.982;7.810;2023-07-29T08:39:55;98200.97;;;22.92;100.00
1616;BME280;801;47.982;7.810;2023-07-29T08:42:37;98199.28;;;22.87;100.00
1616;BME280;801;47.982;7.810;2023-07-29T08:45:22;98210.63;;;23.02;100.00
1616;BME280;801;47.982;7.810;2023-07-29T08:47:54;98226.22;;;23.13;100.00
1616;BME280;801;47.982;7.810;2023-07-29T08:50:38;98203.91;;;23.15;100.00
1616;BME280;801;47.982;7.810;2023-07-29T08:53:18;98212.69;;;23.36;100.00
1616;BME280;801;47.982;7.810;2023-07-29T08:55:54;98210.03;;;23.56;100.00
1616;BME280;801;47.982;7.810;2023-07-29T08:58:25;98205.31;;;23.56;100.00
1616;BME280;801;47.982;7.810;2023-07-29T09:01:07;98210.09;;;23.59;100.00
1616;BME280;801;47.982;7.810;2023-07-29T09:03:50;98210.38;;;23.38;100.00
1616;BME280;801;47.982;7.810;2023-07-29T09:06:31;98235.50;;;23.40;100.00
1616;BME280;801;47.982;7.810;2023-07-29T09:09:21;98223.03;;;23.43;100.00
1616;BME280;801;47.982;7.810;2023-07-29T09:12:23;98225.59;;;23.52;100.00
1616;BME280;801;47.982;7.810;2023-07-29T09:14:57;98217.69;;;23.66;100.00
1616;BME280;801;47.982;7.810;2023-07-29T09:17:40;98226.41;;;23.36;100.00
1616;BME280;801;47.982;7.810;2023-07-29T09:20:24;98210.72;;;23.53;100.00
1616;BME280;801;47.982;7.810;2023-07-29T09:23:07;98207.72;;;23.58;100.00
1616;BME280;801;47.982;7.810;2023-07-29T09:26:00;98202.13;;;23.70;100.00
1616;BME280;801;47.982;7.810;2023-07-29T09:28:56;98207.16;;;23.84;100.00
1616;BME280;801;47.982;7.810;2023-07-29T09:31:59;98202.19;;;23.90;100.00
1616;BME280;801;47.982;7.810;2023-07-29T09:35:03;98217.34;;;23.83;100.00
1616;BME280;801;47.982;7.810;2023-07-29T09:37:53;98220.63;;;23.73;100.00
1616;BME280;801;47.982;7.810;2023-07-29T09:40:23;98217.69;;;23.82;100.00
1616;BME280;801;47.982;7.810;2023-07-29T09:43:09;98195.06;;;23.85;100.00
1616;BME280;801;47.982;7.810;2023-07-29T09:46:08;98205.66;;;23.87;100.00
1616;BME280;801;47.982;7.810;2023-07-29T09:49:00;98224.03;;;24.02;100.00
1616;BME280;801;47.982;7.810;2023-07-29T09:51:41;98221.84;;;24.27;100.00
1616;BME280;801;47.982;7.810;2023-07-29T09:54:25;98218.59;;;24.41;100.00
1616;BME280;801;47.982;7.810;2023-07-29T09:57:09;98225.81;;;24.30;100.00
1616;BME280;801;47.982;7.810;2023-07-29T09:59:58;98214.19;;;24.36;100.00
1616;BME280;801;47.982;7.810;2023-07-29T10:02:57;98221.47;;;24.09;100.00
1616;BME280;801;47.982;7.810;2023-07-29T10:05:28;98221.31;;;24.21;100.00
1616;BME280;801;47.982;7.810;2023-07-29T10:08:15;98224.59;;;24.11;100.00
1616;BME280;801;47.982;7.810;2023-07-29T10:11:18;98219.09;;;24.27;100.00
1616;BME280;801;47.982;7.810;2023-07-29T10:14:02;98220.16;;;24.42;100.00
1616;BME280;801;47.982;7.810;2023-07-29T10:16:43;98218.63;;;24.60;100.00
1616;BME280;801;47.982;7.810;2023-07-29T10:19:27;98244.72;;;24.35;100.00
1616;BME280;801;47.982;7.810;2023-07-29T10:22:02;98235.38;;;24.20;100.00
1616;BME280;801;47.982;7.810;2023-07-29T10:24:50;98227.53;;;24.38;100.00
1616;BME280;801;47.982;7.810;2023-07-29T10:27:42;98229.56;;;24.41;100.00
1616;BME280;801;47.982;7.810;2023-07-29T10:30:29;98221.53;;;24.71;100.00
1616;BME280;801;47.982;7.810;2023-07-29T10:33:17;98225.31;;;24.43;100.00
1616;BME280;801;47.982;7.810;2023-07-29T10:42:19;98214.03;;;25.11;100.00
1616;BME280;801;47.982;7.810;2023-07-29T10:44:52;98234.66;;;25.43;100.00
1616;BME280;801;47.982;7.810;2023-07-29T10:47:26;98228.66;;;25.61;100.00
1616;BME280;801;47.982;7.810;2023-07-29T10:49:55;98226.53;;;25.51;100.00
1616;BME280;801;47.982;7.810;2023-07-29T10:52:42;98229.44;;;25.38;100.00
1616;BME280;801;47.982;7.810;2023-07-29T10:55:25;98217.16;;;25.55;100.00
1616;BME280;801;47.982;7.810;2023-07-29T10:58:16;98221.50;;;25.33;100.00
1616;BME280;801;47.982;7.810;2023-07-29T11:00:59;98231.28;;;25.08;100.00
1616;BME280;801;47.982;7.810;2023-07-29T11:03:41;98219.31;;;25.42;100.00
1616;BME280;801;47.982;7.810;2023-07-29T11:06:20;98218.63;;;25.49;100.00
1616;BME280;801;47.982;7.810;2023-07-29T11:12:37;98215.94;;;25.53;100.00
1616;BME280;801;47.982;7.810;2023-07-29T11:21:33;98201.78;;;25.77;100.00
1616;BME280;801;47.982;7.810;2023-07-29T11:24:09;98212.88;;;25.58;100.00
1616;BME280;801;47.982;7.810;2023-07-29T11:26:49;98193.00;;;25.68;100.00
1616;BME280;801;47.982;7.810;2023-07-29T11:29:25;98207.72;;;26.06;100.00
1616;BME280;801;47.982;7.810;2023-07-29T11:32:22;98221.22;;;25.65;100.00
1616;BME280;801;47.982;7.810;2023-07-29T11:35:12;98204.09;;;25.75;100.00
1616;BME280;801;47.982;7.810;2023-07-29T11:49:11;98192.25;;;25.98;99.02
1616;BME280;801;47.982;7.810;2023-07-29T11:52:24;98195.00;;;25.71;96.36
1616;BME280;801;47.982;7.810;2023-07-29T11:55:24;98180.22;;;25.83;97.80
1616;BME280;801;47.982;7.810;2023-07-29T11:58:07;98187.19;;;26.00;98.27
1616;BME280;801;47.982;7.810;2023-07-29T12:01:10;98178.66;;;26.12;96.58
1616;BME280;801;47.982;7.810;2023-07-29T12:03:51;98183.53;;;26.22;96.77
1616;BME280;801;47.982;7.810;2023-07-29T12:07:05;98161.44;;;26.19;96.42
1616;BME280;801;47.982;7.810;2023-07-29T12:10:07;98171.38;;;26.23;97.03
1616;BME280;801;47.982;7.810;2023-07-29T12:12:52;98173.59;;;26.14;97.52
1616;BME280;801;47.982;7.810;2023-07-29T12:15:38;98170.75;;;26.07;97.01
1616;BME280;801;47.982;7.810;2023-07-29T12:18:10;98180.34;;;26.17;96.76
1616;BME280;801;47.982;7.810;2023-07-29T12:20:58;98176.75;;;26.16;96.56
1616;BME280;801;47.982;7.810;2023-07-29T12:27:13;98164.41;;;26.03;98.26
1616;BME280;801;47.982;7.810;2023-07-29T12:29:57;98170.41;;;26.12;98.20
1616;BME280;801;47.982;7.810;2023-07-29T12:32:32;98178.41;;;25.91;98.41
1616;BME280;801;47.982;7.810;2023-07-29T12:38:29;98169.91;;;26.03;99.21
1616;BME280;801;47.982;7.810;2023-07-29T12:41:07;98175.28;;;25.92;98.84
1616;BME280;801;47.982;7.810;2023-07-29T12:47:08;98185.03;;;25.63;100.00
1616;BME280;801;47.982;7.810;2023-07-29T12:49:43;98178.91;;;25.73;100.00
1616;BME280;801;47.982;7.810;2023-07-29T12:52:31;98179.97;;;25.65;100.00
1616;BME280;801;47.982;7.810;2023-07-29T12:55:16;98182.28;;;25.63;100.00
1616;BME280;801;47.982;7.810;2023-07-29T12:58:00;98172.66;;;25.76;100.00
1616;BME280;801;47.982;7.810;2023-07-29T13:00:43;98183.19;;;25.71;100.00
1616;BME280;801;47.982;7.810;2023-07-29T13:10:08;98181.41;;;25.55;100.00
1616;BME280;801;47.982;7.810;2023-07-29T13:12:53;98188.22;;;25.65;100.00
1616;BME280;801;47.982;7.810;2023-07-29T13:15:47;98195.59;;;25.84;100.00
1616;BME280;801;47.982;7.810;2023-07-29T13:18:33;98196.22;;;25.74;100.00
1616;BME280;801;47.982;7.810;2023-07-29T13:21:16;98202.13;;;25.76;100.00
1616;BME280;801;47.982;7.810;2023-07-29T13:24:17;98196.03;;;25.63;100.00
1616;BME280;801;47.982;7.810;2023-07-29T13:33:43;98202.94;;;26.03;97.73
1616;BME280;801;47.982;7.810;2023-07-29T13:36:38;98216.53;;;25.65;98.75
1616;BME280;801;47.982;7.810;2023-07-29T13:39:17;98209.69;;;25.82;99.44
1616;BME280;801;47.982;7.810;2023-07-29T13:41:54;98211.81;;;26.19;97.61
1616;BME280;801;47.982;7.810;2023-07-29T13:44:38;98205.81;;;26.10;97.35
1616;BME280;801;47.982;7.810;2023-07-29T13:47:11;98207.97;;;26.27;96.29
1616;BME280;801;47.982;7.810;2023-07-29T14:08:57;98203.75;;;26.67;92.87
1616;BME280;801;47.982;7.810;2023-07-29T14:11:48;98203.53;;;26.49;96.92
1616;BME280;801;47.982;7.810;2023-07-29T14:14:35;98199.72;;;25.97;100.00
1616;BME280;801;47.982;7.810;2023-07-29T14:17:26;98214.47;;;25.85;100.00
1616;BME280;801;47.982;7.810;2023-07-29T14:20:31;98221.81;;;25.51;100.00
1616;BME280;801;47.982;7.810;2023-07-29T14:32:47;98225.44;;;22.85;100.00
1616;BME280;801;47.982;7.810;2023-07-29T14:35:13;98224.53;;;23.09;100.00
1616;BME280;801;47.982;7.810;2023-07-29T14:38:03;98219.56;;;23.30;100.00
1616;BME280;801;47.982;7.810;2023-07-29T14:45:54;98232.31;;;22.78;100.00
1616;BME280;801;47.982;7.810;2023-07-29T15:08:40;98224.69;;;22.72;100.00
1616;BME280;801;47.982;7.810;2023-07-29T15:11:20;98224.50;;;22.65;100.00
1616;BME280;801;47.982;7.810;2023-07-29T15:14:32;98224.34;;;22.73;100.00
1616;BME280;801;47.982;7.810;2023-07-29T15:17:13;98236.50;;;22.60;100.00
1616;BME280;801;47.982;7.810;2023-07-29T15:19:40;98230.50;;;22.70;100.00
1616;BME280;801;47.982;7.810;2023-07-29T15:22:07;98226.53;;;22.68;100.00
1616;BME280;801;47.982;7.810;2023-07-29T15:57:03;98224.63;;;22.84;100.00
1616;BME280;801;47.982;7.810;2023-07-29T15:59:38;98217.09;;;22.81;100.00
1616;BME280;801;47.982;7.810;2023-07-29T16:02:27;98214.66;;;22.92;100.00
1616;BME280;801;47.982;7.810;2023-07-29T16:05:07;98222.88;;;22.64;100.00
1616;BME280;801;47.982;7.810;2023-07-29T16:07:48;98220.41;;;22.58;100.00
1616;BME280;801;47.982;7.810;2023-07-29T16:10:33;98211.94;;;22.64;100.00
1616;BME280;801;47.982;7.810;2023-07-29T16:16:41;98209.25;;;22.51;100.00
1616;BME280;801;47.982;7.810;2023-07-29T16:19:24;98207.13;;;22.45;100.00
1616;BME280;801;47.982;7.810;2023-07-29T16:22:05;98201.66;;;22.45;100.00
1616;BME280;801;47.982;7.810;2023-07-29T16:24:32;98212.28;;;22.34;100.00
1616;BME280;801;47.982;7.810;2023-07-29T16:26:58;98196.19;;;22.45;100.00
1616;BME280;801;47.982;7.810;2023-07-29T16:29:25;98203.16;;;22.42;100.00
1616;BME280;801;47.982;7.810;2023-07-29T16:34:51;98203.38;;;22.37;100.00